Time,TemperatureF,DewpointF,PressureIn,WindDirection,WindDirectionDegrees,WindSpeedMPH,WindSpeedGustMPH,Humidity,HourlyPrecipIn,Conditions,Clouds,dailyrainin,SoftwareType,DateUTC
2013-09-16 00:01:00,64.0,57.7,30.08,ESE,102,0.0,0.0,80,0.00,,---,0.00,VWS V14.01,2013-09-16 04:01:00,
2013-09-16 00:02:00,64.1,57.8,30.08,East,100,0.0,0.0,80,0.00,,---,0.00,VWS V14.01,2013-09-16 04:02:00,
2013-09-16 00:03:00,64.1,57.8,30.08,ESE,102,0.0,0.0,80,0.00,,---,0.00,VWS V14.01,2013-09-16 04:03:00,
2013-09-16 00:04:00,64.1,57.8,30.08,East,101,0.0,0.0,80,0.00,,---,0.00,VWS V14.01,2013-09-16 04:04:00,
2013-09-16 00:05:00,64.2,57.9,30.08,ESE,102,0.0,0.0,80,0.00,,---,0.00,VWS V14.01,2013-09-16 04:05:00,
2013-09-16 00:10:00,64.2,57.6,30.07,East,99,0.0,0.0,79,0.00,,---,0.00,VWS V14.01,2013-09-16 04:10:00,
2013-09-16 00:15:00,64.3,58.0,30.08,East,99,0.0,0.0,80,0.00,,---,0.00,VWS V14.01,2013-09-16 04:15:00,
2013-09-16 00:20:00,64.2,57.9,30.07,East,98,0.0,0.0,80,0.00,,---,0.00,VWS V14.01,2013-09-16 04:20:00,
2013-09-16 00:25:00,64.1,57.8,30.07,ENE,77,0.0,0.0,80,0.00,,---,0.00,VWS V14.01,2013-09-16 04:25:00,
2013-09-16 00:30:00,64.1,57.8,30.07,East,88,0.0,0.0,80,0.00,,---,0.00,VWS V14.01,2013-09-16 04:30:00,
2013-09-16 00:35:00,64.1,57.8,30.07,SE,132,0.0,0.0,80,0.00,,---,0.00,VWS V14.01,2013-09-16 04:35:00,
2013-09-16 00:40:00,64.0,57.7,30.07,SE,130,0.0,0.0,80,0.00,,---,0.00,VWS V14.01,2013-09-16 04:40:00,
2013-09-16 00:45:00,64.1,57.8,30.07,NW,311,0.0,0.0,80,0.00,,---,0.00,VWS V14.01,2013-09-16 04:45:00,
2013-09-16 00:50:00,64.1,57.8,30.07,SE,136,0.0,0.0,80,0.00,,---,0.00,VWS V14.01,2013-09-16 04:50:00,
2013-09-16 00:55:00,64.2,57.9,30.07,NW,312,0.0,0.0,80,0.00,,---,0.00,VWS V14.01,2013-09-16 04:55:00,
2013-09-16 01:00:00,64.2,57.9,30.07,NW,312,0.0,0.0,80,0.00,,---,0.00,VWS V14.01,2013-09-16 05:00:00,
2013-09-16 01:05:00,64.0,57.7,30.07,NW,312,0.0,0.0,80,0.00,,---,0.00,VWS V14.01,2013-09-16 05:05:00,
2013-09-16 01:10:00,63.8,57.9,30.07,NNW,343,0.0,0.0,81,0.00,,---,0.00,VWS V14.01,2013-09-16 05:10:00,
2013-09-16 01:15:00,64.0,57.7,30.07,WNW,291,0.0,0.0,80,0.00,,---,0.00,VWS V14.01,2013-09-16 05:15:00,
2013-09-16 01:20:00,64.1,57.8,30.06,NNW,338,0.0,1.0,80,0.00,,---,0.00,VWS V14.01,2013-09-16 05:20:00,
2013-09-16 01:25:00,64.3,58.0,30.06,WSW,250,0.0,0.0,80,0.00,,---,0.00,VWS V14.01,2013-09-16 05:25:00,
2013-09-16 01:30:00,64.3,58.0,30.06,NW,318,2.0,2.0,80,0.00,,---,0.00,VWS V14.01,2013-09-16 05:30:00,
2013-09-16 01:35:00,64.6,58.0,30.06,WNW,290,0.0,2.0,79,0.00,,---,0.00,VWS V14.01,2013-09-16 05:35:00,
2013-09-16 01:40:00,64.8,58.1,30.06,NW,308,3.0,3.0,79,0.00,,---,0.00,VWS V14.01,2013-09-16 05:40:00,
2013-09-16 01:45:00,64.9,58.2,30.06,SSE,159,0.0,1.0,79,0.00,,---,0.00,VWS V14.01,2013-09-16 05:45:00,
2013-09-16 01:50:00,65.0,58.3,30.06,NNW,329,0.0,0.0,79,0.00,,---,0.00,VWS V14.01,2013-09-16 05:50:00,
2013-09-16 01:56:00,65.1,58.4,30.06,NW,317,0.0,0.0,79,0.00,,---,0.00,VWS V14.01,2013-09-16 05:56:00,
2013-09-16 02:01:00,65.0,58.3,30.06,WNW,301,0.0,0.0,79,0.00,,---,0.00,VWS V14.01,2013-09-16 06:01:00,
2013-09-16 02:06:00,65.0,58.3,30.06,NNW,329,0.0,0.0,79,0.00,,---,0.00,VWS V14.01,2013-09-16 06:06:00,
2013-09-16 02:11:00,64.9,58.6,30.06,NW,304,0.0,0.0,80,0.00,,---,0.00,VWS V14.01,2013-09-16 06:11:00,
2013-09-16 02:16:00,64.7,58.4,30.06,SE,128,0.0,0.0,80,0.00,,---,0.00,VWS V14.01,2013-09-16 06:16:00,
2013-09-16 02:21:00,64.7,58.0,30.06,NW,326,0.0,2.0,79,0.00,,---,0.00,VWS V14.01,2013-09-16 06:21:00,
2013-09-16 02:26:00,64.8,58.5,30.06,NE,50,0.0,0.0,80,0.00,,---,0.00,VWS V14.01,2013-09-16 06:26:00,
2013-09-16 02:31:00,64.8,58.5,30.06,WNW,300,0.0,1.0,80,0.00,,---,0.00,VWS V14.01,2013-09-16 06:31:00,
2013-09-16 02:36:00,64.7,58.0,30.06,WNW,297,0.0,3.0,79,0.00,,---,0.00,VWS V14.01,2013-09-16 06:36:00,
2013-09-16 02:41:00,64.7,58.0,30.06,NNW,329,0.0,1.0,79,0.00,,---,0.00,VWS V14.01,2013-09-16 06:41:00,
2013-09-16 02:46:00,64.6,58.3,30.06,NNE,24,1.0,1.0,80,0.00,,---,0.00,VWS V14.01,2013-09-16 06:46:00,
2013-09-16 02:51:00,64.5,58.5,30.05,North,5,0.0,0.0,81,0.00,,---,0.00,VWS V14.01,2013-09-16 06:51:00,
2013-09-16 02:56:00,64.3,58.3,30.05,South,177,0.0,0.0,81,0.00,,---,0.00,VWS V14.01,2013-09-16 06:56:00,
2013-09-16 03:01:00,64.2,58.3,30.05,NNE,22,0.0,0.0,81,0.00,,---,0.00,VWS V14.01,2013-09-16 07:01:00,
2013-09-16 03:06:00,64.2,57.9,30.05,NW,322,0.0,1.0,80,0.00,,---,0.00,VWS V14.01,2013-09-16 07:06:00,
2013-09-16 03:11:00,64.2,57.9,30.05,NW,305,0.0,0.0,80,0.00,,---,0.00,VWS V14.01,2013-09-16 07:11:00,
2013-09-16 03:16:00,64.2,57.9,30.04,NW,319,0.0,1.0,80,0.00,,---,0.00,VWS V14.01,2013-09-16 07:16:00,
2013-09-16 03:21:00,64.2,57.9,30.04,North,356,0.0,0.0,80,0.00,,---,0.00,VWS V14.01,2013-09-16 07:21:00,
2013-09-16 03:26:00,64.2,57.9,30.04,North,349,0.0,1.0,80,0.00,,---,0.00,VWS V14.01,2013-09-16 07:26:00,
2013-09-16 03:31:00,64.1,57.8,30.04,NNW,348,1.0,3.0,80,0.00,,---,0.00,VWS V14.01,2013-09-16 07:31:00,
2013-09-16 03:36:00,64.1,58.2,30.04,SE,146,0.0,0.0,81,0.00,,---,0.00,VWS V14.01,2013-09-16 07:36:00,
2013-09-16 03:41:00,64.2,57.9,30.04,ENE,62,0.0,0.0,80,0.00,,---,0.00,VWS V14.01,2013-09-16 07:41:00,
2013-09-16 03:46:00,64.3,58.0,30.04,ESE,122,0.0,0.0,80,0.00,,---,0.00,VWS V14.01,2013-09-16 07:46:00,
2013-09-16 03:52:00,64.3,58.0,30.03,NNE,27,0.0,0.0,80,0.00,,---,0.00,VWS V14.01,2013-09-16 07:52:00,
2013-09-16 03:57:00,64.1,57.8,30.03,NNE,25,0.0,1.0,80,0.00,,---,0.00,VWS V14.01,2013-09-16 07:57:00,
2013-09-16 04:02:00,64.1,58.2,30.03,NNE,27,0.0,0.0,81,0.00,,---,0.00,VWS V14.01,2013-09-16 08:02:00,
2013-09-16 04:07:00,63.9,58.0,30.03,NE,43,1.0,1.0,81,0.00,,---,0.00,VWS V14.01,2013-09-16 08:07:00,
2013-09-16 04:12:00,63.7,57.8,30.03,NW,326,0.0,0.0,81,0.00,,---,0.00,VWS V14.01,2013-09-16 08:12:00,
2013-09-16 04:17:00,63.6,58.0,30.03,NW,307,0.0,0.0,82,0.00,,---,0.00,VWS V14.01,2013-09-16 08:17:00,
2013-09-16 04:22:00,63.4,58.2,30.03,NW,305,0.0,0.0,83,0.00,,---,0.00,VWS V14.01,2013-09-16 08:22:00,
2013-09-16 04:27:00,63.2,58.0,30.03,NW,308,0.0,0.0,83,0.00,,---,0.00,VWS V14.01,2013-09-16 08:27:00,
2013-09-16 04:32:00,63.3,58.1,30.03,ENE,75,0.0,0.0,83,0.00,,---,0.00,VWS V14.01,2013-09-16 08:32:00,
2013-09-16 04:37:00,63.4,58.2,30.03,ENE,58,0.0,0.0,83,0.00,,---,0.00,VWS V14.01,2013-09-16 08:37:00,
2013-09-16 04:42:00,63.4,58.2,30.02,NE,39,0.0,0.0,83,0.00,,---,0.00,VWS V14.01,2013-09-16 08:42:00,
2013-09-16 04:47:00,63.4,58.2,30.02,ENE,75,0.0,0.0,83,0.00,,---,0.00,VWS V14.01,2013-09-16 08:47:00,
2013-09-16 04:52:00,63.3,58.1,30.02,ENE,75,0.0,0.0,83,0.00,,---,0.00,VWS V14.01,2013-09-16 08:52:00,
2013-09-16 04:58:00,63.2,58.0,30.02,South,181,0.0,0.0,83,0.00,,---,0.00,VWS V14.01,2013-09-16 08:58:00,
2013-09-16 05:03:00,63.3,58.1,30.02,NNE,22,1.0,1.0,83,0.00,,---,0.00,VWS V14.01,2013-09-16 09:03:00,
2013-09-16 05:08:00,63.3,58.1,30.02,ENE,68,0.0,0.0,83,0.00,,---,0.00,VWS V14.01,2013-09-16 09:08:00,
2013-09-16 05:13:00,63.2,58.3,30.02,ENE,68,0.0,0.0,84,0.00,,---,0.00,VWS V14.01,2013-09-16 09:13:00,
2013-09-16 05:18:00,63.2,58.0,30.02,SE,131,0.0,1.0,83,0.00,,---,0.00,VWS V14.01,2013-09-16 09:18:00,
2013-09-16 05:23:00,63.2,58.0,30.02,SE,129,0.0,1.0,83,0.00,,---,0.00,VWS V14.01,2013-09-16 09:23:00,
2013-09-16 05:28:00,63.2,58.0,30.02,NW,321,0.0,0.0,83,0.00,,---,0.00,VWS V14.01,2013-09-16 09:28:00,
2013-09-16 05:33:00,63.1,58.2,30.02,North,353,0.0,0.0,84,0.00,,---,0.00,VWS V14.01,2013-09-16 09:33:00,
2013-09-16 05:38:00,62.9,58.0,30.02,WNW,294,0.0,0.0,84,0.00,,---,0.00,VWS V14.01,2013-09-16 09:38:00,
2013-09-16 05:43:00,62.9,58.0,30.02,NNW,348,0.0,0.0,84,0.00,,---,0.00,VWS V14.01,2013-09-16 09:43:00,
2013-09-16 05:48:00,62.9,58.3,30.03,North,1,0.0,1.0,85,0.00,,---,0.00,VWS V14.01,2013-09-16 09:48:00,
2013-09-16 05:53:00,62.7,58.1,30.03,North,359,0.0,0.0,85,0.00,,---,0.00,VWS V14.01,2013-09-16 09:53:00,
2013-09-16 05:58:00,62.7,58.1,30.04,North,359,0.0,0.0,85,0.00,,---,0.00,VWS V14.01,2013-09-16 09:58:00,
2013-09-16 06:03:00,62.5,57.9,30.04,North,358,0.0,1.0,85,0.00,,---,0.00,VWS V14.01,2013-09-16 10:03:00,
2013-09-16 06:08:00,62.4,57.8,30.05,North,358,0.0,1.0,85,0.00,,---,0.00,VWS V14.01,2013-09-16 10:08:00,
2013-09-16 06:13:00,62.2,57.6,30.05,NNW,330,0.0,0.0,85,0.00,,---,0.00,VWS V14.01,2013-09-16 10:13:00,
2013-09-16 06:18:00,62.0,57.8,30.05,NNW,329,0.0,1.0,86,0.00,,---,0.00,VWS V14.01,2013-09-16 10:18:00,
2013-09-16 06:23:00,61.8,57.6,30.05,NW,323,0.0,1.0,86,0.00,,---,0.00,VWS V14.01,2013-09-16 10:23:00,
2013-09-16 06:28:00,61.6,57.7,30.06,NW,323,0.0,0.0,87,0.00,,---,0.00,VWS V14.01,2013-09-16 10:28:00,
2013-09-16 06:33:00,61.3,57.4,30.06,NW,319,0.0,0.0,87,0.00,,---,0.00,VWS V14.01,2013-09-16 10:33:00,
2013-09-16 06:38:00,61.1,57.5,30.06,WNW,303,0.0,0.0,88,0.00,,---,0.00,VWS V14.01,2013-09-16 10:38:00,
2013-09-16 06:43:00,61.1,57.5,30.06,NW,305,0.0,1.0,88,0.00,,---,0.00,VWS V14.01,2013-09-16 10:43:00,
2013-09-16 06:48:00,61.1,57.5,30.06,WNW,303,0.0,0.0,88,0.00,,---,0.00,VWS V14.01,2013-09-16 10:48:00,
2013-09-16 06:53:00,60.9,57.3,30.07,West,276,1.0,1.0,88,0.00,,---,0.00,VWS V14.01,2013-09-16 10:53:00,
2013-09-16 06:59:00,60.8,57.2,30.07,WNW,284,0.0,0.0,88,0.00,,---,0.00,VWS V14.01,2013-09-16 10:59:00,
2013-09-16 07:04:00,60.6,57.3,30.08,WNW,290,0.0,0.0,89,0.00,,---,0.00,VWS V14.01,2013-09-16 11:04:00,
2013-09-16 07:09:00,60.6,57.3,30.08,WNW,297,1.0,1.0,89,0.00,,---,0.00,VWS V14.01,2013-09-16 11:09:00,
2013-09-16 07:14:00,60.4,57.5,30.08,WNW,298,0.0,0.0,90,0.00,,---,0.00,VWS V14.01,2013-09-16 11:14:00,
2013-09-16 07:19:00,60.0,57.1,30.09,SSE,156,0.0,1.0,90,0.00,,---,0.00,VWS V14.01,2013-09-16 11:19:00,
2013-09-16 07:24:00,59.8,56.9,30.09,SE,144,0.0,1.0,90,0.00,,---,0.00,VWS V14.01,2013-09-16 11:24:00,
2013-09-16 07:29:00,59.5,56.9,30.09,ESE,115,0.0,0.0,91,0.00,,---,0.00,VWS V14.01,2013-09-16 11:29:00,
2013-09-16 07:34:00,58.9,56.3,30.10,West,276,0.0,0.0,91,0.01,,---,0.01,VWS V14.01,2013-09-16 11:34:00,
2013-09-16 07:39:00,58.5,56.5,30.10,WSW,242,0.0,1.0,93,0.03,,---,0.03,VWS V14.01,2013-09-16 11:39:00,
2013-09-16 07:44:00,58.2,56.2,30.10,WSW,242,0.0,0.0,93,0.05,,---,0.05,VWS V14.01,2013-09-16 11:44:00,
2013-09-16 07:50:00,57.8,55.8,30.10,ESE,122,1.0,1.0,93,0.06,,---,0.06,VWS V14.01,2013-09-16 11:50:00,
2013-09-16 07:55:00,57.5,55.8,30.10,SE,131,0.0,0.0,94,0.07,,---,0.07,VWS V14.01,2013-09-16 11:55:00,
2013-09-16 08:00:00,57.3,55.6,30.09,SW,221,0.0,0.0,94,0.08,,---,0.08,VWS V14.01,2013-09-16 12:00:00,
2013-09-16 08:05:00,57.1,55.4,30.09,SW,219,0.0,0.0,94,0.08,,---,0.08,VWS V14.01,2013-09-16 12:05:00,
2013-09-16 08:10:00,56.9,55.2,30.09,SW,221,0.0,0.0,94,0.09,,---,0.09,VWS V14.01,2013-09-16 12:10:00,
2013-09-16 08:15:00,56.8,55.4,30.09,SW,221,0.0,0.0,95,0.09,,---,0.09,VWS V14.01,2013-09-16 12:15:00,
2013-09-16 08:20:00,56.7,55.3,30.10,SW,221,0.0,0.0,95,0.09,,---,0.09,VWS V14.01,2013-09-16 12:20:00,
2013-09-16 08:25:00,56.7,55.3,30.10,SW,221,0.0,0.0,95,0.09,,---,0.09,VWS V14.01,2013-09-16 12:25:00,
2013-09-16 08:30:00,56.7,55.6,30.10,SW,221,0.0,0.0,96,0.09,,---,0.09,VWS V14.01,2013-09-16 12:30:00,
2013-09-16 08:35:00,56.8,55.7,30.10,SW,221,0.0,0.0,96,0.09,,---,0.10,VWS V14.01,2013-09-16 12:35:00,
2013-09-16 08:40:00,56.8,55.7,30.10,SW,225,0.0,0.0,96,0.07,,---,0.10,VWS V14.01,2013-09-16 12:40:00,
2013-09-16 08:45:00,56.8,55.7,30.10,SW,225,0.0,0.0,96,0.05,,---,0.10,VWS V14.01,2013-09-16 12:45:00,
2013-09-16 08:50:00,56.8,55.7,30.10,SW,226,0.0,0.0,96,0.04,,---,0.10,VWS V14.01,2013-09-16 12:50:00,
2013-09-16 08:56:00,56.9,55.8,30.10,SW,226,0.0,0.0,96,0.03,,---,0.10,VWS V14.01,2013-09-16 12:56:00,
2013-09-16 09:01:00,57.0,55.9,30.10,SW,226,0.0,0.0,96,0.02,,---,0.10,VWS V14.01,2013-09-16 13:01:00,
2013-09-16 09:06:00,57.1,56.3,30.11,WSW,238,0.0,1.0,97,0.02,,---,0.10,VWS V14.01,2013-09-16 13:06:00,
2013-09-16 09:11:00,57.2,56.4,30.11,WSW,238,0.0,0.0,97,0.01,,---,0.10,VWS V14.01,2013-09-16 13:11:00,
2013-09-16 09:16:00,57.2,56.4,30.11,SW,236,0.0,0.0,97,0.01,,---,0.10,VWS V14.01,2013-09-16 13:16:00,
2013-09-16 09:21:00,57.2,56.1,30.11,WSW,238,0.0,0.0,96,0.02,,---,0.11,VWS V14.01,2013-09-16 13:21:00,
2013-09-16 09:26:00,57.1,56.0,30.11,WSW,238,0.0,0.0,96,0.02,,---,0.11,VWS V14.01,2013-09-16 13:26:00,
2013-09-16 09:31:00,57.1,56.0,30.11,WSW,238,0.0,0.0,96,0.02,,---,0.11,VWS V14.01,2013-09-16 13:31:00,
2013-09-16 09:36:00,57.1,56.3,30.12,WSW,249,0.0,0.0,97,0.01,,---,0.11,VWS V14.01,2013-09-16 13:36:00,
2013-09-16 09:41:00,57.1,56.3,30.12,WSW,249,0.0,0.0,97,0.01,,---,0.11,VWS V14.01,2013-09-16 13:41:00,
2013-09-16 09:46:00,57.2,56.4,30.11,WSW,248,0.0,0.0,97,0.01,,---,0.11,VWS V14.01,2013-09-16 13:46:00,
2013-09-16 09:51:00,57.3,56.5,30.11,WSW,248,0.0,0.0,97,0.01,,---,0.11,VWS V14.01,2013-09-16 13:51:00,
2013-09-16 09:56:00,57.5,56.7,30.12,WSW,249,0.0,0.0,97,0.01,,---,0.11,VWS V14.01,2013-09-16 13:56:00,
2013-09-16 10:01:00,57.6,56.8,30.12,WSW,249,0.0,0.0,97,0.01,,---,0.11,VWS V14.01,2013-09-16 14:01:00,
2013-09-16 10:06:00,57.7,56.9,30.12,WSW,255,0.0,0.0,97,0.01,,---,0.11,VWS V14.01,2013-09-16 14:06:00,
2013-09-16 10:11:00,57.6,56.8,30.12,WSW,255,0.0,0.0,97,0.01,,---,0.11,VWS V14.01,2013-09-16 14:11:00,
2013-09-16 10:17:00,57.5,56.4,30.12,West,264,0.0,0.0,96,0.01,,---,0.11,VWS V14.01,2013-09-16 14:17:00,
2013-09-16 10:22:00,57.4,56.6,30.12,West,269,0.0,0.0,97,0.00,,---,0.11,VWS V14.01,2013-09-16 14:22:00,
2013-09-16 10:27:00,57.4,56.6,30.12,SW,233,0.0,0.0,97,0.00,,---,0.11,VWS V14.01,2013-09-16 14:27:00,
2013-09-16 10:32:00,57.5,56.7,30.12,SW,235,0.0,0.0,97,0.00,,---,0.11,VWS V14.01,2013-09-16 14:32:00,
2013-09-16 10:37:00,57.7,56.9,30.12,SW,235,0.0,0.0,97,0.00,,---,0.11,VWS V14.01,2013-09-16 14:37:00,
2013-09-16 10:42:00,57.8,57.0,30.12,West,263,0.0,0.0,97,0.00,,---,0.11,VWS V14.01,2013-09-16 14:42:00,
2013-09-16 10:47:00,58.1,57.3,30.13,West,264,0.0,0.0,97,0.00,,---,0.11,VWS V14.01,2013-09-16 14:47:00,
2013-09-16 10:52:00,58.1,57.3,30.13,West,264,0.0,0.0,97,0.00,,---,0.11,VWS V14.01,2013-09-16 14:52:00,
2013-09-16 10:57:00,58.2,57.4,30.13,WSW,245,0.0,0.0,97,0.00,,---,0.11,VWS V14.01,2013-09-16 14:57:00,
2013-09-16 11:02:00,58.2,57.4,30.13,WSW,250,0.0,0.0,97,0.00,,---,0.11,VWS V14.01,2013-09-16 15:02:00,
2013-09-16 11:07:00,58.3,57.5,30.13,WSW,250,0.0,0.0,97,0.00,,---,0.11,VWS V14.01,2013-09-16 15:07:00,
2013-09-16 11:12:00,58.5,57.7,30.13,WSW,248,0.0,0.0,97,0.00,,---,0.11,VWS V14.01,2013-09-16 15:12:00,
2013-09-16 11:17:00,58.6,57.5,30.13,WSW,248,0.0,0.0,96,0.00,,---,0.11,VWS V14.01,2013-09-16 15:17:00,
2013-09-16 11:23:00,58.7,57.6,30.13,SW,218,0.0,0.0,96,0.00,,---,0.11,VWS V14.01,2013-09-16 15:23:00,
2013-09-16 11:28:00,58.8,57.7,30.13,SW,233,0.0,0.0,96,0.00,,---,0.11,VWS V14.01,2013-09-16 15:28:00,
2013-09-16 11:33:00,59.0,57.9,30.14,WSW,248,0.0,0.0,96,0.00,,---,0.11,VWS V14.01,2013-09-16 15:33:00,
2013-09-16 11:38:00,59.1,57.7,30.14,WSW,255,0.0,1.0,95,0.00,,---,0.11,VWS V14.01,2013-09-16 15:38:00,
2013-09-16 11:43:00,59.5,58.1,30.14,SSW,211,0.0,0.0,95,0.00,,---,0.11,VWS V14.01,2013-09-16 15:43:00,
2013-09-16 11:48:00,59.8,58.4,30.14,WNW,297,0.0,0.0,95,0.00,,---,0.11,VWS V14.01,2013-09-16 15:48:00,
2013-09-16 11:53:00,60.3,58.9,30.14,SSW,194,0.0,0.0,95,0.00,,---,0.11,VWS V14.01,2013-09-16 15:53:00,
2013-09-16 11:58:00,60.7,58.7,30.14,SSW,194,0.0,0.0,93,0.00,,---,0.11,VWS V14.01,2013-09-16 15:58:00,
2013-09-16 12:03:00,61.1,59.1,30.14,SE,125,0.0,0.0,93,0.00,,---,0.11,VWS V14.01,2013-09-16 16:03:00,
2013-09-16 12:08:00,61.0,58.0,30.14,SE,134,0.0,0.0,90,0.00,,---,0.11,VWS V14.01,2013-09-16 16:08:00,
2013-09-16 12:13:00,61.1,58.2,30.14,WSW,241,0.0,0.0,90,0.00,,---,0.11,VWS V14.01,2013-09-16 16:13:00,
2013-09-16 12:18:00,61.2,58.6,30.14,SE,144,0.0,0.0,91,0.00,,---,0.11,VWS V14.01,2013-09-16 16:18:00,
2013-09-16 12:23:00,61.4,58.8,30.14,ESE,119,0.0,0.0,91,0.00,,---,0.11,VWS V14.01,2013-09-16 16:23:00,
2013-09-16 12:28:00,61.7,58.4,30.14,WNW,287,0.0,0.0,89,0.00,,---,0.11,VWS V14.01,2013-09-16 16:28:00,
2013-09-16 12:33:00,61.9,58.3,30.14,SSW,203,0.0,0.0,88,0.00,,---,0.11,VWS V14.01,2013-09-16 16:33:00,
2013-09-16 12:38:00,62.0,57.8,30.14,SSW,210,0.0,0.0,86,0.00,,---,0.11,VWS V14.01,2013-09-16 16:38:00,
2013-09-16 12:44:00,62.0,58.4,30.14,SW,232,0.0,0.0,88,0.00,,---,0.11,VWS V14.01,2013-09-16 16:44:00,
2013-09-16 12:49:00,62.6,59.3,30.14,South,173,0.0,0.0,89,0.00,,---,0.11,VWS V14.01,2013-09-16 16:49:00,
2013-09-16 12:54:00,63.0,59.4,30.14,SSE,157,0.0,0.0,88,0.00,,---,0.11,VWS V14.01,2013-09-16 16:54:00,
2013-09-16 12:59:00,63.2,59.3,30.13,SSW,208,0.0,0.0,87,0.00,,---,0.11,VWS V14.01,2013-09-16 16:59:00,
2013-09-16 13:04:00,63.4,58.8,30.14,West,260,0.0,0.0,85,0.00,,---,0.11,VWS V14.01,2013-09-16 17:04:00,
2013-09-16 13:09:00,63.5,58.6,30.14,SSW,201,0.0,0.0,84,0.00,,---,0.11,VWS V14.01,2013-09-16 17:09:00,
2013-09-16 13:14:00,64.1,60.2,30.13,West,276,0.0,0.0,87,0.00,,---,0.11,VWS V14.01,2013-09-16 17:14:00,
2013-09-16 13:19:00,64.4,59.5,30.13,SW,218,0.0,0.0,84,0.00,,---,0.11,VWS V14.01,2013-09-16 17:19:00,
2013-09-16 13:24:00,64.3,58.3,30.13,East,86,0.0,1.0,81,0.00,,---,0.11,VWS V14.01,2013-09-16 17:24:00,
2013-09-16 13:29:00,64.3,59.0,30.13,SE,134,0.0,0.0,83,0.00,,---,0.11,VWS V14.01,2013-09-16 17:29:00,
2013-09-16 13:35:00,64.4,58.8,30.13,SSE,158,0.0,0.0,82,0.00,,---,0.11,VWS V14.01,2013-09-16 17:35:00,
2013-09-16 13:40:00,64.3,57.7,30.13,SSW,211,0.0,0.0,79,0.00,,---,0.11,VWS V14.01,2013-09-16 17:40:00,
2013-09-16 13:45:00,64.5,57.8,30.13,SSW,212,0.0,0.0,79,0.00,,---,0.11,VWS V14.01,2013-09-16 17:45:00,
2013-09-16 13:50:00,64.8,57.4,30.13,SW,229,0.0,1.0,77,0.00,,---,0.11,VWS V14.01,2013-09-16 17:50:00,
2013-09-16 13:55:00,65.3,60.0,30.13,SE,125,0.0,0.0,83,0.00,,---,0.11,VWS V14.01,2013-09-16 17:55:00,
2013-09-16 14:00:00,65.5,58.5,30.13,SSE,166,0.0,0.0,78,0.00,,---,0.11,VWS V14.01,2013-09-16 18:00:00,
2013-09-16 14:05:00,65.7,60.4,30.13,ESE,120,0.0,0.0,83,0.00,,---,0.11,VWS V14.01,2013-09-16 18:05:00,
2013-09-16 14:10:00,65.8,59.8,30.13,SSE,152,0.0,0.0,81,0.00,,---,0.11,VWS V14.01,2013-09-16 18:10:00,
2013-09-16 14:15:00,65.5,58.5,30.13,North,5,0.0,0.0,78,0.00,,---,0.11,VWS V14.01,2013-09-16 18:15:00,
2013-09-16 14:20:00,65.0,57.6,30.13,SW,232,0.0,0.0,77,0.00,,---,0.11,VWS V14.01,2013-09-16 18:20:00,
2013-09-16 14:25:00,64.6,58.3,30.13,SE,128,0.0,0.0,80,0.00,,---,0.11,VWS V14.01,2013-09-16 18:25:00,
2013-09-16 14:30:00,64.1,57.8,30.13,SE,129,0.0,0.0,80,0.00,,---,0.11,VWS V14.01,2013-09-16 18:30:00,
2013-09-16 14:36:00,63.9,57.3,30.13,SSW,212,0.0,0.0,79,0.00,,---,0.11,VWS V14.01,2013-09-16 18:36:00,
2013-09-16 14:41:00,64.1,58.5,30.13,SSW,212,0.0,0.0,82,0.00,,---,0.11,VWS V14.01,2013-09-16 18:41:00,
2013-09-16 14:46:00,64.6,58.7,30.13,WSW,250,0.0,0.0,81,0.00,,---,0.11,VWS V14.01,2013-09-16 18:46:00,
2013-09-16 14:51:00,65.1,58.4,30.13,WSW,252,0.0,0.0,79,0.00,,---,0.11,VWS V14.01,2013-09-16 18:51:00,
2013-09-16 14:56:00,65.5,58.5,30.13,NE,39,0.0,0.0,78,0.00,,---,0.11,VWS V14.01,2013-09-16 18:56:00,
2013-09-16 15:01:00,65.6,57.8,30.13,NE,44,0.0,0.0,76,0.00,,---,0.11,VWS V14.01,2013-09-16 19:01:00,
2013-09-16 15:06:00,65.8,58.4,30.13,NE,44,0.0,0.0,77,0.00,,---,0.11,VWS V14.01,2013-09-16 19:06:00,
2013-09-16 15:11:00,65.8,58.0,30.13,West,264,0.0,1.0,76,0.00,,---,0.11,VWS V14.01,2013-09-16 19:11:00,
2013-09-16 15:16:00,65.7,57.6,30.12,WSW,240,0.0,0.0,75,0.00,,---,0.11,VWS V14.01,2013-09-16 19:16:00,
2013-09-16 15:21:00,65.9,58.5,30.12,South,180,0.0,0.0,77,0.00,,---,0.11,VWS V14.01,2013-09-16 19:21:00,
2013-09-16 15:26:00,65.9,58.9,30.12,SW,232,0.0,0.0,78,0.00,,---,0.11,VWS V14.01,2013-09-16 19:26:00,
2013-09-16 15:31:00,66.0,59.3,30.12,SW,232,0.0,0.0,79,0.00,,---,0.11,VWS V14.01,2013-09-16 19:31:00,
2013-09-16 15:36:00,66.0,57.5,30.12,SSE,154,0.0,0.0,74,0.00,,---,0.11,VWS V14.01,2013-09-16 19:36:00,
2013-09-16 15:41:00,66.1,58.0,30.12,SE,145,0.0,0.0,75,0.00,,---,0.11,VWS V14.01,2013-09-16 19:41:00,
2013-09-16 15:46:00,66.2,58.0,30.12,SE,146,0.0,0.0,75,0.00,,---,0.11,VWS V14.01,2013-09-16 19:46:00,
2013-09-16 15:51:00,66.2,58.4,30.12,SSE,159,0.0,0.0,76,0.00,,---,0.11,VWS V14.01,2013-09-16 19:51:00,
2013-09-16 15:56:00,66.2,58.4,30.12,SSE,167,0.0,0.0,76,0.00,,---,0.11,VWS V14.01,2013-09-16 19:56:00,
2013-09-16 16:01:00,66.1,58.7,30.12,South,175,0.0,0.0,77,0.00,,---,0.11,VWS V14.01,2013-09-16 20:01:00,
2013-09-16 16:07:00,65.9,57.4,30.12,SSW,205,0.0,0.0,74,0.00,,---,0.11,VWS V14.01,2013-09-16 20:07:00,
2013-09-16 16:12:00,65.7,57.9,30.12,SW,222,0.0,0.0,76,0.00,,---,0.11,VWS V14.01,2013-09-16 20:12:00,
2013-09-16 16:17:00,65.6,57.1,30.12,SW,218,0.0,0.0,74,0.00,,---,0.11,VWS V14.01,2013-09-16 20:17:00,
2013-09-16 16:22:00,65.8,58.4,30.12,SW,219,0.0,0.0,77,0.00,,---,0.11,VWS V14.01,2013-09-16 20:22:00,
2013-09-16 16:27:00,65.6,57.5,30.12,SW,228,0.0,0.0,75,0.00,,---,0.11,VWS V14.01,2013-09-16 20:27:00,
2013-09-16 16:32:00,65.6,58.2,30.12,SW,228,0.0,0.0,77,0.00,,---,0.11,VWS V14.01,2013-09-16 20:32:00,
2013-09-16 16:37:00,65.4,58.0,30.12,SW,228,0.0,0.0,77,0.00,,---,0.11,VWS V14.01,2013-09-16 20:37:00,
2013-09-16 16:42:00,65.1,57.7,30.12,SW,228,0.0,0.0,77,0.00,,---,0.11,VWS V14.01,2013-09-16 20:42:00,
2013-09-16 16:47:00,64.9,57.9,30.12,SW,229,0.0,0.0,78,0.00,,---,0.11,VWS V14.01,2013-09-16 20:47:00,
2013-09-16 16:52:00,64.8,57.8,30.12,SW,226,0.0,0.0,78,0.00,,---,0.11,VWS V14.01,2013-09-16 20:52:00,
2013-09-16 16:57:00,64.7,58.4,30.12,SW,226,0.0,0.0,80,0.00,,---,0.11,VWS V14.01,2013-09-16 20:57:00,
2013-09-16 17:02:00,64.7,58.4,30.12,SW,228,0.0,0.0,80,0.00,,---,0.11,VWS V14.01,2013-09-16 21:02:00,
2013-09-16 17:07:00,64.5,58.2,30.12,SW,226,0.0,0.0,80,0.00,,---,0.11,VWS V14.01,2013-09-16 21:07:00,
2013-09-16 17:12:00,64.3,58.0,30.12,SW,226,0.0,0.0,80,0.00,,---,0.11,VWS V14.01,2013-09-16 21:12:00,
2013-09-16 17:17:00,64.1,57.8,30.12,SW,226,0.0,0.0,80,0.00,,---,0.11,VWS V14.01,2013-09-16 21:17:00,
2013-09-16 17:23:00,63.8,57.9,30.12,SW,226,0.0,0.0,81,0.00,,---,0.11,VWS V14.01,2013-09-16 21:23:00,
2013-09-16 17:28:00,63.5,57.9,30.12,SW,226,0.0,0.0,82,0.00,,---,0.11,VWS V14.01,2013-09-16 21:28:00,
2013-09-16 17:33:00,63.3,58.1,30.12,SW,226,0.0,0.0,83,0.00,,---,0.11,VWS V14.01,2013-09-16 21:33:00,
2013-09-16 17:38:00,63.0,57.8,30.12,SW,228,0.0,0.0,83,0.00,,---,0.11,VWS V14.01,2013-09-16 21:38:00,
2013-09-16 17:43:00,62.8,57.9,30.12,SW,229,0.0,0.0,84,0.00,,---,0.11,VWS V14.01,2013-09-16 21:43:00,
2013-09-16 17:48:00,62.7,57.8,30.12,SW,228,0.0,0.0,84,0.00,,---,0.11,VWS V14.01,2013-09-16 21:48:00,
2013-09-16 17:53:00,62.7,58.1,30.13,SW,227,0.0,0.0,85,0.00,,---,0.11,VWS V14.01,2013-09-16 21:53:00,
2013-09-16 17:58:00,62.8,58.2,30.13,SW,227,0.0,0.0,85,0.00,,---,0.11,VWS V14.01,2013-09-16 21:58:00,
2013-09-16 18:03:00,62.9,58.0,30.13,SW,227,0.0,0.0,84,0.00,,---,0.11,VWS V14.01,2013-09-16 22:03:00,
2013-09-16 18:08:00,63.0,58.1,30.13,SW,228,0.0,0.0,84,0.00,,---,0.11,VWS V14.01,2013-09-16 22:08:00,
2013-09-16 18:13:00,63.0,57.8,30.13,SW,228,0.0,0.0,83,0.00,,---,0.11,VWS V14.01,2013-09-16 22:13:00,
2013-09-16 18:18:00,62.9,57.3,30.13,SW,228,0.0,0.0,82,0.00,,---,0.11,VWS V14.01,2013-09-16 22:18:00,
2013-09-16 18:24:00,62.6,57.0,30.13,SW,228,0.0,0.0,82,0.00,,---,0.11,VWS V14.01,2013-09-16 22:24:00,
2013-09-16 18:29:00,62.3,57.1,30.14,SW,228,0.0,0.0,83,0.00,,---,0.11,VWS V14.01,2013-09-16 22:29:00,
2013-09-16 18:34:00,62.1,57.5,30.14,West,259,0.0,0.0,85,0.00,,---,0.11,VWS V14.01,2013-09-16 22:34:00,
2013-09-16 18:39:00,61.7,56.5,30.14,West,259,0.0,0.0,83,0.00,,---,0.11,VWS V14.01,2013-09-16 22:39:00,
2013-09-16 18:44:00,61.5,56.6,30.14,West,259,0.0,0.0,84,0.00,,---,0.11,VWS V14.01,2013-09-16 22:44:00,
2013-09-16 18:49:00,61.3,56.8,30.13,West,259,0.0,0.0,85,0.00,,---,0.11,VWS V14.01,2013-09-16 22:49:00,
2013-09-16 18:54:00,61.1,56.6,30.13,West,259,0.0,0.0,85,0.00,,---,0.11,VWS V14.01,2013-09-16 22:54:00,
2013-09-16 18:59:00,60.9,56.0,30.13,West,259,0.0,0.0,84,0.00,,---,0.11,VWS V14.01,2013-09-16 22:59:00,
2013-09-16 19:04:00,60.7,55.8,30.14,West,259,0.0,0.0,84,0.00,,---,0.11,VWS V14.01,2013-09-16 23:04:00,
2013-09-16 19:09:00,60.5,56.0,30.14,West,259,0.0,0.0,85,0.00,,---,0.11,VWS V14.01,2013-09-16 23:09:00,
2013-09-16 19:14:00,60.3,55.5,30.14,West,259,0.0,0.0,84,0.00,,---,0.11,VWS V14.01,2013-09-16 23:14:00,
2013-09-16 19:20:00,60.0,55.2,30.14,West,263,0.0,0.0,84,0.00,,---,0.11,VWS V14.01,2013-09-16 23:20:00,
2013-09-16 19:25:00,59.9,55.1,30.14,West,270,0.0,0.0,84,0.00,,---,0.11,VWS V14.01,2013-09-16 23:25:00,
2013-09-16 19:30:00,59.8,55.0,30.15,West,269,0.0,0.0,84,0.00,,---,0.11,VWS V14.01,2013-09-16 23:30:00,
2013-09-16 19:35:00,59.7,54.9,30.15,West,270,0.0,0.0,84,0.00,,---,0.11,VWS V14.01,2013-09-16 23:35:00,
2013-09-16 19:40:00,59.7,54.9,30.15,West,274,0.0,0.0,84,0.00,,---,0.11,VWS V14.01,2013-09-16 23:40:00,
2013-09-16 19:45:00,59.7,54.9,30.15,West,280,0.0,0.0,84,0.00,,---,0.11,VWS V14.01,2013-09-16 23:45:00,
2013-09-16 19:50:00,59.6,54.4,30.15,West,281,0.0,0.0,83,0.00,,---,0.11,VWS V14.01,2013-09-16 23:50:00,
2013-09-16 19:55:00,59.6,54.1,30.15,West,263,0.0,0.0,82,0.00,,---,0.11,VWS V14.01,2013-09-16 23:55:00,
2013-09-16 20:00:00,59.6,54.4,30.16,West,267,0.0,0.0,83,0.00,,---,0.11,VWS V14.01,2013-09-17 00:00:00,
2013-09-16 20:05:00,59.5,54.3,30.16,West,271,0.0,0.0,83,0.00,,---,0.11,VWS V14.01,2013-09-17 00:05:00,
2013-09-16 20:11:00,59.4,54.2,30.16,West,271,0.0,0.0,83,0.00,,---,0.11,VWS V14.01,2013-09-17 00:11:00,
2013-09-16 20:16:00,59.3,53.8,30.16,West,271,0.0,0.0,82,0.00,,---,0.11,VWS V14.01,2013-09-17 00:16:00,
2013-09-16 20:21:00,59.2,53.7,30.17,West,271,0.0,0.0,82,0.00,,---,0.11,VWS V14.01,2013-09-17 00:21:00,
2013-09-16 20:26:00,59.1,54.0,30.17,West,275,0.0,0.0,83,0.00,,---,0.11,VWS V14.01,2013-09-17 00:26:00,
2013-09-16 20:31:00,59.0,53.5,30.17,West,276,0.0,0.0,82,0.00,,---,0.11,VWS V14.01,2013-09-17 00:31:00,
2013-09-16 20:36:00,59.0,53.8,30.17,West,270,0.0,1.0,83,0.00,,---,0.11,VWS V14.01,2013-09-17 00:36:00,
2013-09-16 20:41:00,58.9,53.8,30.18,West,275,0.0,0.0,83,0.00,,---,0.11,VWS V14.01,2013-09-17 00:41:00,
2013-09-16 20:46:00,58.9,53.8,30.18,West,276,0.0,0.0,83,0.00,,---,0.11,VWS V14.01,2013-09-17 00:46:00,
2013-09-16 20:51:00,58.9,53.4,30.18,West,276,0.0,0.0,82,0.00,,---,0.11,VWS V14.01,2013-09-17 00:51:00,
2013-09-16 20:56:00,59.0,53.5,30.18,West,275,0.0,0.0,82,0.00,,---,0.11,VWS V14.01,2013-09-17 00:56:00,
2013-09-16 21:01:00,58.9,53.8,30.18,West,275,0.0,0.0,83,0.00,,---,0.11,VWS V14.01,2013-09-17 01:01:00,
2013-09-16 21:07:00,58.8,53.7,30.19,West,276,0.0,0.0,83,0.00,,---,0.11,VWS V14.01,2013-09-17 01:07:00,
2013-09-16 21:12:00,58.7,53.6,30.19,West,270,0.0,0.0,83,0.00,,---,0.11,VWS V14.01,2013-09-17 01:12:00,
2013-09-16 21:17:00,58.7,53.6,30.19,West,269,0.0,0.0,83,0.00,,---,0.11,VWS V14.01,2013-09-17 01:17:00,
2013-09-16 21:22:00,58.8,53.3,30.19,WSW,253,0.0,1.0,82,0.00,,---,0.11,VWS V14.01,2013-09-17 01:22:00,
2013-09-16 21:27:00,58.8,53.3,30.19,West,274,0.0,1.0,82,0.00,,---,0.11,VWS V14.01,2013-09-17 01:27:00,
2013-09-16 21:32:00,58.9,53.1,30.20,West,272,0.0,0.0,81,0.00,,---,0.11,VWS V14.01,2013-09-17 01:32:00,
2013-09-16 21:37:00,59.0,52.8,30.20,West,273,0.0,1.0,80,0.00,,---,0.11,VWS V14.01,2013-09-17 01:37:00,
2013-09-16 21:42:00,59.1,52.9,30.20,West,270,0.0,0.0,80,0.00,,---,0.11,VWS V14.01,2013-09-17 01:42:00,
2013-09-16 21:47:00,59.0,52.8,30.20,West,270,0.0,0.0,80,0.00,,---,0.11,VWS V14.01,2013-09-17 01:47:00,
2013-09-16 21:52:00,58.8,52.7,30.20,West,270,0.0,0.0,80,0.00,,---,0.11,VWS V14.01,2013-09-17 01:52:00,
2013-09-16 21:58:00,58.8,52.7,30.20,West,270,0.0,0.0,80,0.00,,---,0.11,VWS V14.01,2013-09-17 01:58:00,
2013-09-16 22:03:00,58.8,53.0,30.20,West,270,0.0,0.0,81,0.00,,---,0.11,VWS V14.01,2013-09-17 02:03:00,
2013-09-16 22:08:00,58.7,52.9,30.20,West,270,0.0,1.0,81,0.00,,---,0.11,VWS V14.01,2013-09-17 02:08:00,
2013-09-16 22:13:00,58.6,52.5,30.20,West,270,0.0,0.0,80,0.00,,---,0.11,VWS V14.01,2013-09-17 02:13:00,
2013-09-16 22:18:00,58.6,52.5,30.20,West,270,0.0,1.0,80,0.00,,---,0.11,VWS V14.01,2013-09-17 02:18:00,
2013-09-16 22:23:00,58.7,52.9,30.21,West,270,0.0,1.0,81,0.00,,---,0.11,VWS V14.01,2013-09-17 02:23:00,
2013-09-16 22:28:00,58.6,52.5,30.21,West,270,0.0,0.0,80,0.00,,---,0.11,VWS V14.01,2013-09-17 02:28:00,
2013-09-16 22:33:00,58.8,52.7,30.21,West,275,0.0,0.0,80,0.00,,---,0.11,VWS V14.01,2013-09-17 02:33:00,
2013-09-16 22:38:00,58.9,52.4,30.21,West,273,0.0,1.0,79,0.00,,---,0.11,VWS V14.01,2013-09-17 02:38:00,
2013-09-16 22:43:00,59.0,52.2,30.21,West,272,0.0,0.0,78,0.00,,---,0.11,VWS V14.01,2013-09-17 02:43:00,
2013-09-16 22:48:00,59.2,52.7,30.21,West,273,0.0,0.0,79,0.00,,---,0.11,VWS V14.01,2013-09-17 02:48:00,
2013-09-16 22:53:00,59.2,52.7,30.22,West,273,0.0,1.0,79,0.00,,---,0.11,VWS V14.01,2013-09-17 02:53:00,
2013-09-16 22:58:00,59.2,52.3,30.22,West,273,0.0,0.0,78,0.00,,---,0.11,VWS V14.01,2013-09-17 02:58:00,
2013-09-16 23:04:00,59.3,52.1,30.22,West,273,0.0,0.0,77,0.00,,---,0.11,VWS V14.01,2013-09-17 03:04:00,
2013-09-16 23:09:00,59.5,51.9,30.23,West,273,0.0,0.0,76,0.00,,---,0.11,VWS V14.01,2013-09-17 03:09:00,
2013-09-16 23:14:00,59.8,51.9,30.23,West,273,0.0,0.0,75,0.00,,---,0.11,VWS V14.01,2013-09-17 03:14:00,
2013-09-16 23:19:00,59.9,52.3,30.23,West,273,0.0,0.0,76,0.00,,---,0.11,VWS V14.01,2013-09-17 03:19:00,
2013-09-16 23:24:00,59.8,52.2,30.23,West,273,0.0,0.0,76,0.00,,---,0.11,VWS V14.01,2013-09-17 03:24:00,
2013-09-16 23:29:00,59.5,51.9,30.23,West,273,0.0,0.0,76,0.00,,---,0.11,VWS V14.01,2013-09-17 03:29:00,
2013-09-16 23:34:00,59.2,52.0,30.23,West,273,0.0,0.0,77,0.00,,---,0.11,VWS V14.01,2013-09-17 03:34:00,
2013-09-16 23:39:00,58.9,52.1,30.23,West,273,0.0,0.0,78,0.00,,---,0.11,VWS V14.01,2013-09-17 03:39:00,
2013-09-16 23:44:00,58.7,52.2,30.23,WSW,249,0.0,0.0,79,0.00,,---,0.11,VWS V14.01,2013-09-17 03:44:00,
2013-09-16 23:49:00,58.6,52.5,30.23,WSW,249,0.0,0.0,80,0.00,,---,0.11,VWS V14.01,2013-09-17 03:49:00,
2013-09-16 23:55:00,58.2,52.1,30.23,WSW,255,0.0,0.0,80,0.00,,---,0.11,VWS V14.01,2013-09-17 03:55:00,